Time;durP1;ratioP1;P1;durP2;ratioP2;P2;SDS_P1;SDS_P2;PMS_P1;PMS_P2;Temp;Humidity;BMP_temperature;BMP_pressure;BME280_temperature;BME280_humidity;BME280_pressure;Samples;Min_cycle;Max_cycle;Signal;HPM_P1;HPM_P2
2023/07/13 00:00:11;;;;;;;3.27;1.50;;;;;;;20.29;89.08;100263.00;5054623;28;20994;-75
2023/07/13 00:02:36;;;;;;;1.70;1.30;;;;;;;20.27;89.43;100264.88;5060259;28;20238;-76
2023/07/13 00:05:02;;;;;;;1.43;1.30;;;;;;;20.23;89.12;100262.41;5061758;28;20588;-75
2023/07/13 00:07:27;;;;;;;1.43;1.00;;;;;;;20.20;89.34;100270.44;5061477;28;20214;-74
2023/07/13 00:09:53;;;;;;;1.70;1.50;;;;;;;20.18;90.19;100263.56;5063318;28;20825;-74
2023/07/13 00:12:31;;;;;;;2.97;1.40;;;;;;;20.16;90.59;100273.31;5056483;28;20557;-74
2023/07/13 00:14:58;;;;;;;2.50;1.50;;;;;;;20.09;90.71;100273.59;5061845;28;20192;-75
2023/07/13 00:17:24;;;;;;;2.60;1.43;;;;;;;20.07;89.02;100270.19;5063000;28;20202;-78
2023/07/13 00:19:49;;;;;;;1.97;1.30;;;;;;;20.03;87.96;100271.28;5058078;28;20212;-75
2023/07/13 00:22:15;;;;;;;2.13;1.57;;;;;;;20.00;87.77;100270.56;5061177;28;20185;-75
2023/07/13 00:24:41;;;;;;;1.67;1.33;;;;;;;19.99;89.06;100274.97;5062414;28;20554;-75
2023/07/13 00:27:09;;;;;;;1.33;1.00;;;;;;;19.96;88.60;100277.75;5061440;28;20304;-74
2023/07/13 00:29:35;;;;;;;1.37;1.20;;;;;;;19.94;89.12;100275.22;5057751;28;20212;-75
2023/07/13 00:32:00;;;;;;;2.10;1.23;;;;;;;19.92;88.93;100277.06;5061599;28;20190;-75
2023/07/13 00:34:26;;;;;;;2.00;1.20;;;;;;;19.90;88.97;100271.00;5056242;28;20192;-75
2023/07/13 00:36:51;;;;;;;1.70;1.03;;;;;;;19.88;88.63;100274.66;5062067;28;20990;-75
2023/07/13 00:39:16;;;;;;;1.57;1.40;;;;;;;19.86;88.15;100266.78;5054097;28;20216;-75
2023/07/13 00:41:43;;;;;;;1.30;1.13;;;;;;;19.86;89.02;100268.59;5058326;28;20223;-75
2023/07/13 00:44:14;;;;;;;1.87;1.13;;;;;;;19.86;89.93;100272.03;5058060;28;20725;-75
2023/07/13 00:46:39;;;;;;;2.07;1.30;;;;;;;19.86;90.51;100279.09;5058192;28;20205;-75
2023/07/13 00:49:08;;;;;;;1.80;1.20;;;;;;;19.85;90.44;100277.38;5061821;28;20265;-75
2023/07/13 00:51:42;;;;;;;3.87;1.40;;;;;;;19.83;88.58;100266.09;5060391;28;20194;-76
2023/07/13 00:54:16;;;;;;;1.67;1.00;;;;;;;19.78;87.99;100269.78;5061981;28;20643;-75
2023/07/13 00:56:44;;;;;;;1.33;1.10;;;;;;;19.76;87.53;100273.41;5061397;28;20259;-75
2023/07/13 00:59:11;;;;;;;1.10;1.00;;;;;;;19.75;88.05;100276.97;5063477;28;20541;-77
2023/07/13 01:01:37;;;;;;;2.60;1.00;;;;;;;19.76;89.80;100270.78;5059034;28;20280;-75
2023/07/13 01:04:03;;;;;;;2.17;1.00;;;;;;;19.75;90.46;100269.94;5055176;28;20311;-76
2023/07/13 01:06:28;;;;;;;1.27;1.00;;;;;;;19.73;90.74;100269.19;5053696;28;20205;-75
2023/07/13 01:08:55;;;;;;;1.53;1.07;;;;;;;19.70;91.09;100268.44;5061108;28;20212;-76
2023/07/13 01:11:22;;;;;;;2.77;1.40;;;;;;;19.67;91.63;100266.84;5058908;28;20196;-75
2023/07/13 01:13:48;;;;;;;3.17;1.03;;;;;;;19.63;91.89;100271.38;5058182;28;20651;-76
2023/07/13 01:16:21;;;;;;;1.80;1.20;;;;;;;19.60;92.51;100254.91;5057295;28;20277;-75
2023/07/13 01:18:47;;;;;;;2.17;1.40;;;;;;;19.55;93.00;100251.66;5061800;28;20199;-76
2023/07/13 01:21:12;;;;;;;1.70;1.30;;;;;;;19.53;93.27;100258.75;5057270;28;20861;-76
2023/07/13 01:23:37;;;;;;;2.43;1.40;;;;;;;19.49;93.30;100258.06;5061268;28;20187;-76
2023/07/13 01:26:03;;;;;;;1.70;1.17;;;;;;;19.45;93.18;100267.00;5058609;28;20210;-75
2023/07/13 01:28:28;;;;;;;2.37;1.13;;;;;;;19.39;93.16;100269.88;5057703;28;20203;-76
2023/07/13 01:30:56;;;;;;;1.67;1.50;;;;;;;19.30;92.86;100260.66;5060873;28;20574;-75
2023/07/13 01:33:22;;;;;;;1.87;1.57;;;;;;;19.21;93.50;100259.31;5058714;28;20700;-76
2023/07/13 01:35:47;;;;;;;2.07;1.20;;;;;;;19.12;93.58;100262.34;5060375;28;20229;-76
2023/07/13 01:38:19;;;;;;;1.47;1.23;;;;;;;19.05;93.88;100272.28;5064242;28;20193;-74
2023/07/13 01:40:44;;;;;;;1.40;1.17;;;;;;;19.00;94.20;100274.25;5057241;28;20202;-76
2023/07/13 01:43:09;;;;;;;1.50;1.23;;;;;;;18.97;94.84;100272.63;5054808;28;20186;-76
2023/07/13 01:45:35;;;;;;;1.30;1.20;;;;;;;18.96;95.75;100268.28;5061426;28;20202;-75
2023/07/13 01:48:00;;;;;;;1.57;1.43;;;;;;;18.94;96.13;100269.25;5059883;28;20535;-76
2023/07/13 01:50:26;;;;;;;2.57;1.30;;;;;;;18.92;96.49;100276.31;5073288;28;20204;-76
2023/07/13 01:52:52;;;;;;;2.03;1.30;;;;;;;18.86;95.75;100275.66;5077997;28;20726;-76
2023/07/13 01:55:17;;;;;;;2.50;1.40;;;;;;;18.79;95.82;100276.88;5060439;28;20199;-76
2023/07/13 01:57:42;;;;;;;1.53;1.30;;;;;;;18.74;96.41;100271.84;5057800;28;20232;-76
2023/07/13 02:00:10;;;;;;;2.13;1.10;;;;;;;18.67;96.31;100272.16;5056292;28;20931;-74
2023/07/13 02:02:35;;;;;;;2.23;1.30;;;;;;;18.59;96.51;100272.50;5063519;28;20193;-75
2023/07/13 02:05:01;;;;;;;1.93;1.50;;;;;;;18.52;96.77;100271.91;5061742;28;20587;-75
2023/07/13 02:07:26;;;;;;;1.30;1.20;;;;;;;18.45;97.00;100274.84;5048910;28;20274;-76
2023/07/13 02:09:51;;;;;;;2.23;1.00;;;;;;;18.39;97.35;100266.31;5055396;28;20200;-76
2023/07/13 02:12:17;;;;;;;1.40;1.20;;;;;;;18.34;97.62;100267.44;5064358;28;20931;-76
2023/07/13 02:14:42;;;;;;;1.33;1.20;;;;;;;18.30;97.95;100268.47;5056754;28;20218;-76
2023/07/13 02:17:10;;;;;;;1.20;1.10;;;;;;;18.26;97.40;100265.13;5056347;28;20189;-75
2023/07/13 02:19:36;;;;;;;1.97;1.40;;;;;;;18.24;97.73;100267.78;5055653;28;20259;-76
2023/07/13 02:22:01;;;;;;;2.20;1.50;;;;;;;18.21;98.05;100273.19;5055297;28;20189;-76
2023/07/13 02:24:27;;;;;;;1.40;1.30;;;;;;;18.17;97.47;100265.50;5053006;28;20181;-76
2023/07/13 02:26:52;;;;;;;1.97;1.40;;;;;;;18.10;97.40;100264.88;5055155;28;20589;-76
2023/07/13 02:29:18;;;;;;;2.30;1.50;;;;;;;18.04;97.16;100259.91;5056139;28;21296;-75
2023/07/13 02:31:43;;;;;;;1.67;1.57;;;;;;;18.00;97.90;100264.41;5050236;28;20756;-76
2023/07/13 02:34:09;;;;;;;1.77;1.67;;;;;;;17.97;98.71;100265.38;5060014;28;20272;-75
2023/07/13 02:36:34;;;;;;;1.20;1.10;;;;;;;17.95;98.98;100269.81;5055276;28;20200;-76
2023/07/13 02:39:04;;;;;;;2.17;1.73;;;;;;;17.95;99.69;100268.97;5060103;28;20304;-75
2023/07/13 02:41:30;;;;;;;1.63;1.50;;;;;;;17.92;100.00;100264.69;5057054;28;20680;-76
2023/07/13 02:44:03;;;;;;;2.97;1.33;;;;;;;17.89;100.00;100263.97;5057301;28;20191;-76
2023/07/13 02:46:30;;;;;;;2.47;1.50;;;;;;;17.81;100.00;100264.25;5057404;28;20218;-76
2023/07/13 02:48:55;;;;;;;1.40;1.30;;;;;;;17.73;100.00;100269.81;5058144;28;20213;-75
2023/07/13 02:51:20;;;;;;;2.60;1.63;;;;;;;17.68;100.00;100266.53;5057665;28;20280;-76
2023/07/13 02:53:46;;;;;;;2.40;1.40;;;;;;;17.64;99.89;100273.63;5056936;28;20194;-76
2023/07/13 02:56:11;;;;;;;2.00;1.50;;;;;;;17.62;100.00;100259.75;5057551;28;20637;-76
2023/07/13 02:58:38;;;;;;;1.53;1.40;;;;;;;17.62;100.00;100262.34;5057479;28;20337;-75
2023/07/13 03:01:12;;;;;;;1.70;1.50;;;;;;;17.62;100.00;100270.22;5057923;28;20276;-76
2023/07/13 03:03:38;;;;;;;2.10;1.40;;;;;;;17.59;100.00;100264.25;5058744;28;20201;-76
2023/07/13 03:06:05;;;;;;;2.10;1.70;;;;;;;17.56;100.00;100264.38;5063139;28;20218;-76
2023/07/13 03:08:30;;;;;;;2.57;1.80;;;;;;;17.51;100.00;100275.88;5056311;28;20209;-76
2023/07/13 03:11:08;;;;;;;3.50;1.60;;;;;;;17.46;100.00;100274.34;5059133;28;20188;-76
2023/07/13 03:13:33;;;;;;;3.13;1.57;;;;;;;17.35;100.00;100282.59;5055944;28;20689;-75
2023/07/13 03:15:59;;;;;;;1.97;1.50;;;;;;;17.29;100.00;100285.44;5059422;28;20182;-76
2023/07/13 03:18:26;;;;;;;2.67;1.50;;;;;;;17.25;100.00;100289.06;5053141;28;20325;-76
2023/07/13 03:20:52;;;;;;;1.70;1.50;;;;;;;17.21;100.00;100294.44;5056135;28;20182;-76
2023/07/13 03:23:19;;;;;;;1.90;1.50;;;;;;;17.20;100.00;100295.34;5055833;28;20746;-75
2023/07/13 03:25:44;;;;;;;1.60;1.50;;;;;;;17.20;100.00;100291.84;5054589;28;20238;-76
2023/07/13 03:28:10;;;;;;;1.50;1.40;;;;;;;17.17;100.00;100294.56;5055217;28;20213;-76
2023/07/13 03:30:36;;;;;;;1.67;1.30;;;;;;;17.15;100.00;100299.03;5054358;28;20280;-75
2023/07/13 03:33:01;;;;;;;2.10;1.40;;;;;;;17.15;100.00;100299.88;5056165;28;20208;-76
2023/07/13 03:35:27;;;;;;;1.60;1.30;;;;;;;17.18;100.00;100307.59;5054357;28;20572;-76
2023/07/13 03:37:52;;;;;;;1.80;1.40;;;;;;;17.17;100.00;100303.28;5055093;28;21049;-76
2023/07/13 03:40:18;;;;;;;2.10;1.60;;;;;;;17.17;100.00;100302.41;5054526;28;20214;-76
2023/07/13 03:42:43;;;;;;;1.30;1.20;;;;;;;17.17;100.00;100298.06;5056643;28;21665;-75
2023/07/13 03:45:08;;;;;;;1.83;1.60;;;;;;;17.17;100.00;100305.91;5057182;28;20202;-76
2023/07/13 03:47:34;;;;;;;1.93;1.30;;;;;;;17.15;100.00;100306.88;5056802;28;20190;-75
2023/07/13 03:49:59;;;;;;;2.60;1.73;;;;;;;17.16;100.00;100300.75;5066525;28;20233;-76
2023/07/13 03:52:24;;;;;;;3.80;1.80;;;;;;;17.18;100.00;100306.72;5062569;28;20270;-76
2023/07/13 03:54:50;;;;;;;1.97;1.40;;;;;;;17.19;100.00;100311.06;5057959;28;20734;-75
2023/07/13 03:57:15;;;;;;;1.83;1.50;;;;;;;17.21;100.00;100311.88;5059284;28;20690;-76
2023/07/13 03:59:40;;;;;;;1.80;1.57;;;;;;;17.23;100.00;100317.91;5057596;28;20210;-76
2023/07/13 04:02:06;;;;;;;2.13;1.70;;;;;;;17.25;100.00;100317.81;5052821;28;21075;-75
2023/07/13 04:04:31;;;;;;;1.50;1.40;;;;;;;17.29;100.00;100314.19;5056380;28;20189;-75
2023/07/13 04:06:59;;;;;;;1.90;1.60;;;;;;;17.34;100.00;100314.91;5057659;28;20264;-76
2023/07/13 04:09:25;;;;;;;1.87;1.50;;;;;;;17.36;100.00;100319.16;5060139;28;20309;-76
2023/07/13 04:11:50;;;;;;;1.97;1.30;;;;;;;17.43;100.00;100314.53;5063204;28;20263;-76
2023/07/13 04:14:16;;;;;;;2.57;1.60;;;;;;;17.48;100.00;100315.22;5064154;28;20186;-77
2023/07/13 04:16:41;;;;;;;2.50;1.67;;;;;;;17.52;100.00;100311.59;5060040;28;20181;-76
2023/07/13 04:19:08;;;;;;;2.23;1.60;;;;;;;17.55;100.00;100312.38;5056945;28;20240;-77
2023/07/13 04:21:33;;;;;;;1.97;1.57;;;;;;;17.58;100.00;100318.38;5052246;28;20638;-75
2023/07/13 04:23:59;;;;;;;1.70;1.20;;;;;;;17.62;100.00;100325.16;5054937;28;20247;-76
2023/07/13 04:26:25;;;;;;;2.10;1.70;;;;;;;17.68;100.00;100317.09;5054157;28;20253;-75
2023/07/13 04:28:51;;;;;;;2.27;1.37;;;;;;;17.75;100.00;100315.09;5063757;28;20210;-76
2023/07/13 04:31:16;;;;;;;3.03;1.67;;;;;;;17.80;100.00;100317.53;5060162;28;20693;-75
2023/07/13 04:33:42;;;;;;;2.90;1.50;;;;;;;17.87;100.00;100319.00;5058568;28;20194;-75
2023/07/13 04:36:09;;;;;;;1.63;1.50;;;;;;;17.97;100.00;100328.22;5060136;28;20202;-75
2023/07/13 04:38:35;;;;;;;1.60;1.43;;;;;;;18.07;100.00;100335.75;5056863;28;20238;-74
2023/07/13 04:41:03;;;;;;;1.57;1.47;;;;;;;18.21;100.00;100330.81;5061394;28;20198;-76
2023/07/13 04:43:30;;;;;;;2.50;1.50;;;;;;;18.34;99.33;100343.41;5062536;28;20193;-76
2023/07/13 04:45:56;;;;;;;1.93;1.70;;;;;;;18.54;98.07;100345.22;5057973;28;20211;-76
2023/07/13 04:48:22;;;;;;;2.03;1.60;;;;;;;18.92;97.03;100342.72;5060389;28;20208;-75
2023/07/13 04:50:48;;;;;;;1.87;1.50;;;;;;;19.41;95.62;100345.00;5055836;28;20197;-76
2023/07/13 04:53:13;;;;;;;3.03;1.77;;;;;;;19.88;94.63;100342.94;5059844;28;20796;-75
2023/07/13 04:55:39;;;;;;;2.63;1.57;;;;;;;20.44;93.29;100345.50;5061320;28;20178;-76
2023/07/13 04:58:04;;;;;;;1.50;1.40;;;;;;;20.97;90.73;100351.66;5062576;28;20190;-77
2023/07/13 05:00:31;;;;;;;3.27;1.50;;;;;;;21.17;89.04;100346.22;5064750;28;20201;-75
2023/07/13 05:02:57;;;;;;;2.00;1.40;;;;;;;21.14;88.47;100350.78;5058882;28;20273;-76
2023/07/13 05:05:24;;;;;;;1.97;1.53;;;;;;;21.04;88.13;100346.94;5065285;28;21089;-75
2023/07/13 05:07:49;;;;;;;2.27;1.30;;;;;;;20.91;88.28;100344.94;5067281;28;20290;-75
2023/07/13 05:10:15;;;;;;;2.40;1.50;;;;;;;20.84;88.22;100343.53;5055743;28;20631;-75
2023/07/13 05:12:40;;;;;;;1.33;1.23;;;;;;;20.77;88.44;100347.41;5061862;28;20216;-76
2023/07/13 05:15:06;;;;;;;2.07;1.60;;;;;;;20.67;88.27;100349.63;5057194;28;20627;-75
2023/07/13 05:17:32;;;;;;;2.40;1.63;;;;;;;20.59;87.80;100359.66;5059797;28;20637;-76
2023/07/13 05:19:57;;;;;;;2.80;1.63;;;;;;;20.49;87.41;100352.25;5056054;28;20213;-76
2023/07/13 05:22:22;;;;;;;2.50;1.50;;;;;;;20.37;87.41;100355.47;5056472;28;20197;-75
2023/07/13 05:24:48;;;;;;;2.20;1.53;;;;;;;20.32;87.43;100350.47;5064878;28;20189;-74
2023/07/13 05:27:13;;;;;;;2.03;1.60;;;;;;;20.44;88.19;100354.25;5063702;28;20186;-74
2023/07/13 05:29:38;;;;;;;3.53;2.23;;;;;;;20.63;87.72;100354.19;5066357;28;20209;-75
2023/07/13 05:32:04;;;;;;;1.77;1.60;;;;;;;20.75;87.88;100358.00;5063796;28;20987;-75
2023/07/13 05:34:29;;;;;;;2.40;1.50;;;;;;;21.08;87.17;100361.63;5062244;28;20208;-75
2023/07/13 05:36:55;;;;;;;1.90;1.63;;;;;;;21.40;86.84;100356.47;5062524;28;20247;-75
2023/07/13 05:39:20;;;;;;;2.73;1.60;;;;;;;22.07;85.39;100359.84;5065395;28;20209;-75
2023/07/13 05:41:46;;;;;;;1.90;1.50;;;;;;;22.74;83.70;100355.22;5057251;28;20186;-75
2023/07/13 05:44:11;;;;;;;2.30;1.50;;;;;;;23.01;82.77;100363.28;5064760;28;20416;-75
2023/07/13 05:46:36;;;;;;;1.60;1.50;;;;;;;23.02;82.60;100359.72;5064888;28;20214;-75
2023/07/13 05:49:03;;;;;;;2.03;1.50;;;;;;;23.35;81.72;100368.34;5078734;28;20287;-74
2023/07/13 05:51:28;;;;;;;2.97;1.57;;;;;;;23.72;79.82;100373.97;5076417;28;20256;-75
2023/07/13 05:53:53;;;;;;;3.73;1.40;;;;;;;24.37;78.18;100369.00;5062131;28;20178;-75
2023/07/13 05:56:19;;;;;;;2.30;1.10;;;;;;;25.20;76.06;100379.31;5064673;28;20647;-76
2023/07/13 05:58:44;;;;;;;3.20;1.00;;;;;;;25.93;73.79;100379.56;5061281;28;20217;-75
2023/07/13 06:01:14;;;;;;;2.10;1.13;;;;;;;26.63;72.13;100379.78;5059620;28;20201;-76
2023/07/13 06:03:40;;;;;;;1.57;1.17;;;;;;;26.55;70.55;100385.69;5047754;28;20239;-75
2023/07/13 06:06:07;;;;;;;2.20;1.27;;;;;;;26.28;70.47;100392.09;5062682;28;20318;-75
2023/07/13 06:08:33;;;;;;;2.73;1.20;;;;;;;25.90;69.58;100384.25;5070915;28;20213;-75
2023/07/13 06:11:11;;;;;;;1.43;1.20;;;;;;;25.62;69.96;100389.69;5062950;28;20182;-75
2023/07/13 06:13:36;;;;;;;1.80;1.30;;;;;;;25.60;69.15;100388.97;5065753;28;20527;-75
2023/07/13 06:16:06;;;;;;;4.60;1.63;;;;;;;26.09;68.55;100392.53;5064815;28;20192;-76
2023/07/13 06:18:33;;;;;;;2.85;1.13;;;;;;;26.36;67.41;100396.81;5051346;28;20753;-74
2023/07/13 06:20:59;;;;;;;2.97;1.38;;;;;;;26.85;66.32;100397.63;5053659;28;20235;-75
2023/07/13 06:23:25;;;;;;;3.95;0.95;;;;;;;27.02;65.64;100396.31;5059061;28;20607;-75
2023/07/13 06:25:50;;;;;;;3.95;1.50;;;;;;;26.90;65.76;100402.59;5060201;28;20197;-76
2023/07/13 06:28:16;;;;;;;2.15;1.20;;;;;;;26.73;64.38;100409.97;5061326;28;20735;-75
2023/07/13 06:30:41;;;;;;;2.00;1.10;;;;;;;27.15;64.32;100408.69;5064980;28;20189;-75
2023/07/13 06:33:07;;;;;;;2.10;1.25;;;;;;;27.34;63.96;100406.28;5063141;28;20267;-75
2023/07/13 06:35:32;;;;;;;3.50;1.30;;;;;;;27.76;63.85;100410.16;5062389;28;20224;-76
2023/07/13 06:37:57;;;;;;;3.00;1.40;;;;;;;27.96;63.01;100413.91;5064277;28;20185;-75
2023/07/13 06:40:23;;;;;;;1.85;1.23;;;;;;;28.18;62.55;100410.38;5063178;28;20201;-75
2023/07/13 06:42:48;;;;;;;2.40;1.17;;;;;;;28.45;62.31;100419.72;5059797;28;20780;-75
2023/07/13 06:45:13;;;;;;;1.40;1.30;;;;;;;28.62;62.06;100422.78;5056746;28;20730;-76
2023/07/13 06:47:39;;;;;;;2.83;1.10;;;;;;;28.87;61.61;100430.44;5063283;28;20727;-75
2023/07/13 06:50:05;;;;;;;1.85;1.40;;;;;;;29.30;61.08;100439.25;5061567;28;20635;-76
2023/07/13 06:52:30;;;;;;;3.03;1.20;;;;;;;29.44;61.09;100439.91;5062580;28;20232;-76
2023/07/13 06:54:55;;;;;;;2.80;1.55;;;;;;;29.71;61.29;100443.81;5064769;28;20182;-77
2023/07/13 06:57:21;;;;;;;4.00;1.48;;;;;;;29.85;60.41;100437.28;5061648;28;20247;-76
2023/07/13 06:59:46;;;;;;;3.25;1.40;;;;;;;29.97;60.23;100436.22;5061183;28;20220;-75
2023/07/13 07:02:12;;;;;;;2.40;1.60;;;;;;;30.15;59.31;100432.88;5061992;28;20583;-76
2023/07/13 07:04:37;;;;;;;2.13;1.42;;;;;;;30.17;59.99;100441.59;5054565;28;20196;-75
2023/07/13 07:07:03;;;;;;;3.67;1.60;;;;;;;30.19;60.14;100442.28;5073826;28;20213;-75
2023/07/13 07:09:29;;;;;;;1.67;1.45;;;;;;;30.26;59.90;100448.75;5055994;28;20290;-75
2023/07/13 07:11:55;;;;;;;2.78;1.80;;;;;;;30.41;59.43;100450.03;5052238;28;20725;-76
2023/07/13 07:14:20;;;;;;;3.42;1.52;;;;;;;30.65;59.43;100445.31;5056467;28;20278;-76
2023/07/13 07:16:46;;;;;;;2.60;1.50;;;;;;;30.63;59.91;100447.28;5061366;28;20245;-75
2023/07/13 07:19:11;;;;;;;4.07;1.80;;;;;;;30.68;59.72;100442.34;5063524;28;20249;-76
2023/07/13 07:21:36;;;;;;;2.90;1.60;;;;;;;30.64;59.87;100449.78;5060272;28;20293;-76
2023/07/13 07:24:03;;;;;;;2.03;1.40;;;;;;;30.95;59.10;100448.78;5063926;28;20213;-76
2023/07/13 07:26:28;;;;;;;3.63;1.67;;;;;;;30.96;58.82;100442.47;5062189;28;20229;-77
2023/07/13 07:28:54;;;;;;;2.90;1.50;;;;;;;31.02;59.61;100447.22;5073051;28;20236;-77
2023/07/13 07:31:19;;;;;;;3.03;1.42;;;;;;;30.94;59.99;100447.09;5053599;28;20524;-78
2023/07/13 07:33:45;;;;;;;2.22;1.50;;;;;;;31.01;59.21;100440.19;5059927;28;20937;-76
2023/07/13 07:36:11;;;;;;;4.55;1.65;;;;;;;30.94;59.35;100447.94;5061490;28;20219;-76
2023/07/13 07:38:36;;;;;;;1.95;1.42;;;;;;;31.04;59.40;100458.63;5054609;28;20206;-76
2023/07/13 07:41:04;;;;;;;5.22;1.70;;;;;;;31.06;59.06;100456.66;5061209;28;20201;-77
2023/07/13 07:43:30;;;;;;;5.07;1.63;;;;;;;31.04;58.90;100455.94;5063696;28;20190;-76
2023/07/13 07:45:55;;;;;;;3.13;1.60;;;;;;;31.01;58.42;100457.06;5062145;28;20838;-76
2023/07/13 07:48:20;;;;;;;6.10;1.65;;;;;;;31.05;58.13;100462.97;5064251;28;20210;-76
2023/07/13 07:50:46;;;;;;;2.30;1.40;;;;;;;31.01;57.82;100459.75;5070710;28;20779;-77
2023/07/13 07:53:12;;;;;;;2.88;1.60;;;;;;;30.99;58.05;100458.22;5060150;28;20196;-76
2023/07/13 07:55:38;;;;;;;3.22;1.40;;;;;;;30.91;57.80;100464.28;5059400;28;20186;-76
2023/07/13 07:58:03;;;;;;;3.25;1.50;;;;;;;30.87;58.76;100469.03;5059990;28;20216;-76
2023/07/13 08:00:32;;;;;;;3.83;1.70;;;;;;;30.97;58.24;100463.69;5059422;28;20251;-77
2023/07/13 08:02:58;;;;;;;2.47;1.67;;;;;;;31.03;57.29;100464.94;5048788;28;20994;-77
2023/07/13 08:05:23;;;;;;;3.33;1.50;;;;;;;31.22;56.17;100464.13;5052222;28;20749;-76
2023/07/13 08:07:49;;;;;;;1.85;1.10;;;;;;;31.13;56.73;100470.31;5053657;28;20306;-76
2023/07/13 08:10:14;;;;;;;3.05;1.63;;;;;;;30.75;55.35;100478.19;5058020;28;20302;-77
2023/07/13 08:12:40;;;;;;;3.00;1.10;;;;;;;30.28;54.17;100476.16;5058380;28;20197;-77
2023/07/13 08:15:09;;;;;;;2.80;1.33;;;;;;;29.56;55.47;100470.00;5055955;28;20672;-77
2023/07/13 08:17:35;;;;;;;2.90;1.52;;;;;;;29.70;56.87;100455.47;5060307;28;20182;-77
2023/07/13 08:20:00;;;;;;;1.77;1.05;;;;;;;29.76;56.69;100454.94;5053248;28;20214;-75
2023/07/13 08:22:27;;;;;;;4.70;1.60;;;;;;;29.58;56.45;100462.69;5060121;28;20726;-76
2023/07/13 08:24:55;;;;;;;2.72;1.30;;;;;;;29.31;51.85;100467.59;5068491;28;20970;-76
2023/07/13 08:27:22;;;;;;;2.47;1.10;;;;;;;29.76;52.66;100462.94;5066868;28;20696;-77
2023/07/13 08:29:48;;;;;;;2.33;1.35;;;;;;;29.67;53.80;100459.25;5061186;28;20267;-77
2023/07/13 08:32:14;;;;;;;4.03;1.20;;;;;;;29.89;54.92;100458.19;5066734;28;20632;-75
2023/07/13 08:34:40;;;;;;;2.30;1.40;;;;;;;30.06;54.78;100466.56;5068927;28;20268;-76
2023/07/13 08:37:06;;;;;;;1.73;1.00;;;;;;;30.25;53.48;100465.75;5069797;28;20178;-77
2023/07/13 08:39:32;;;;;;;3.55;1.27;;;;;;;30.71;49.83;100461.59;5069577;28;20217;-77
2023/07/13 08:42:31;;;;;;;2.17;1.17;;;;;;;30.39;50.57;100460.00;5062592;28;20204;-75
2023/07/13 08:45:03;;;;;;;2.85;1.27;;;;;;;30.23;51.79;100457.03;5059520;28;20186;-75
2023/07/13 08:47:33;;;;;;;1.73;1.20;;;;;;;30.21;53.09;100459.88;5061557;28;20182;-76
2023/07/13 08:49:59;;;;;;;1.90;1.40;;;;;;;29.89;54.49;100458.19;5055722;28;20204;-75
2023/07/13 08:52:36;;;;;;;3.15;1.48;;;;;;;30.07;55.02;100453.06;5067775;28;20260;-75
2023/07/13 08:55:25;;;;;;;2.45;0.98;;;;;;;30.12;53.77;100458.00;5070355;28;20181;-76
2023/07/13 08:58:11;;;;;;;2.03;1.10;;;;;;;29.89;52.26;100458.19;5068184;28;20186;-75
2023/07/13 09:01:20;;;;;;;1.63;1.10;;;;;;;29.57;52.46;100453.03;5064233;28;20200;-75
2023/07/13 09:04:09;;;;;;;2.88;1.13;;;;;;;29.30;52.25;100457.91;5054267;28;20202;-75
2023/07/13 09:07:00;;;;;;;1.27;1.02;;;;;;;28.99;52.88;100454.34;5059892;28;20769;-74
2023/07/13 09:09:41;;;;;;;1.70;1.20;;;;;;;28.77;53.16;100456.16;5064154;28;20218;-74
2023/07/13 09:12:30;;;;;;;1.77;1.33;;;;;;;28.58;54.14;100456.81;5064828;28;20186;-74
2023/07/13 09:14:57;;;;;;;2.15;1.00;;;;;;;28.53;53.69;100451.03;5066926;28;20670;-75
2023/07/13 09:17:42;;;;;;;2.45;1.58;;;;;;;28.25;53.22;100456.78;5068707;28;20178;-74
2023/07/13 09:20:47;;;;;;;2.37;1.23;;;;;;;28.37;53.10;100456.75;5067092;28;20197;-75
2023/07/13 09:23:19;;;;;;;1.52;1.23;;;;;;;28.26;54.29;100452.31;5064110;28;20194;-74
2023/07/13 09:25:56;;;;;;;2.40;1.37;;;;;;;28.34;55.44;100452.53;5067557;28;20202;-74
2023/07/13 09:28:34;;;;;;;2.53;1.53;;;;;;;28.23;56.33;100447.25;5072995;28;20202;-73
2023/07/13 09:31:06;;;;;;;3.17;1.50;;;;;;;28.30;55.89;100451.06;5052411;28;20861;-75
2023/07/13 09:33:32;;;;;;;1.67;1.27;;;;;;;28.40;55.86;100452.03;5067186;28;20236;-75
2023/07/13 09:35:58;;;;;;;3.80;1.57;;;;;;;28.13;54.19;100445.31;5066698;28;20181;-74
2023/07/13 09:38:31;;;;;;;2.17;1.33;;;;;;;28.35;54.86;100443.56;5063929;28;20285;-75
2023/07/13 09:41:11;;;;;;;2.07;1.20;;;;;;;28.45;54.57;100449.81;5060939;28;20178;-75
2023/07/13 09:43:36;;;;;;;2.10;1.20;;;;;;;28.51;52.60;100448.47;5061703;28;20197;-74
2023/07/13 09:46:03;;;;;;;3.67;1.20;;;;;;;28.45;53.38;100455.16;5053308;28;20211;-75
2023/07/13 09:48:35;;;;;;;2.00;1.20;;;;;;;28.51;53.88;100450.28;5069684;28;20212;-75
2023/07/13 09:51:13;;;;;;;2.60;1.40;;;;;;;28.39;54.18;100454.81;5086950;28;20170;-75
2023/07/13 09:53:40;;;;;;;4.10;1.43;;;;;;;28.11;54.53;100452.59;5056459;28;20182;-76
2023/07/13 09:56:19;;;;;;;3.43;1.37;;;;;;;28.19;54.83;100453.78;5068571;28;20227;-75
2023/07/13 09:58:44;;;;;;;2.20;1.33;;;;;;;28.21;54.54;100451.84;5063838;28;20206;-76
2023/07/13 10:01:10;;;;;;;2.77;1.30;;;;;;;28.33;54.09;100444.69;5064715;28;20391;-75
2023/07/13 10:03:39;;;;;;;1.77;1.03;;;;;;;28.14;53.06;100443.50;5056451;28;20179;-75
2023/07/13 10:06:13;;;;;;;2.00;1.20;;;;;;;28.12;53.62;100448.97;5057331;28;20662;-76
2023/07/13 10:08:39;;;;;;;4.50;1.60;;;;;;;27.98;54.48;100443.88;5067596;28;20254;-77
2023/07/13 10:11:22;;;;;;;2.37;1.20;;;;;;;28.04;53.58;100445.19;5053354;28;20771;-75
2023/07/13 10:13:56;;;;;;;2.47;1.40;;;;;;;28.12;55.19;100448.09;5063246;28;20180;-74
2023/07/13 10:16:23;;;;;;;3.13;1.10;;;;;;;28.29;54.67;100438.75;5066272;28;20178;-74
2023/07/13 10:18:49;;;;;;;2.20;1.20;;;;;;;28.35;54.97;100446.22;5057570;28;20201;-75
2023/07/13 10:21:23;;;;;;;3.67;1.70;;;;;;;28.35;54.51;100438.25;5063377;28;20189;-75
2023/07/13 10:23:54;;;;;;;2.00;1.17;;;;;;;28.46;53.99;100448.03;5066520;28;20178;-75
2023/07/13 10:26:34;;;;;;;2.83;1.30;;;;;;;28.04;54.86;100451.34;5068759;28;20347;-75
2023/07/13 10:29:06;;;;;;;2.00;1.40;;;;;;;27.87;55.78;100443.88;5056973;28;20297;-75
2023/07/13 10:31:34;;;;;;;2.30;1.70;;;;;;;27.66;55.85;100445.47;5054542;28;20227;-76
2023/07/13 10:34:00;;;;;;;1.60;1.20;;;;;;;27.71;55.60;100442.44;5061202;28;20186;-75
2023/07/13 10:36:38;;;;;;;2.60;1.10;;;;;;;27.73;56.14;100440.50;5067610;28;20307;-75
2023/07/13 10:39:05;;;;;;;2.37;1.40;;;;;;;27.76;55.15;100436.75;5071275;28;20296;-75
2023/07/13 10:41:38;;;;;;;3.43;1.10;;;;;;;27.57;54.96;100442.66;5063929;28;20254;-75
2023/07/13 10:44:04;;;;;;;3.63;1.23;;;;;;;27.00;54.91;100432.78;5057879;28;20178;-76
2023/07/13 10:46:30;;;;;;;2.27;1.27;;;;;;;27.24;54.45;100432.72;5065476;28;20206;-75
2023/07/13 10:49:01;;;;;;;2.80;1.40;;;;;;;27.37;55.53;100431.78;5059412;28;20213;-76
2023/07/13 10:51:28;;;;;;;2.30;1.57;;;;;;;27.48;55.46;100441.56;5062633;28;20193;-75
2023/07/13 10:54:19;;;;;;;3.10;1.20;;;;;;;27.22;53.36;100431.13;5064442;28;20322;-75
2023/07/13 10:56:46;;;;;;;2.63;1.13;;;;;;;27.41;54.44;100440.34;5064685;28;20175;-74
2023/07/13 10:59:16;;;;;;;2.13;1.30;;;;;;;27.41;54.69;100435.88;5060382;28;20297;-75
2023/07/13 11:02:04;;;;;;;4.13;1.37;;;;;;;27.35;54.97;100433.72;5064581;28;20204;-75
2023/07/13 11:04:47;;;;;;;1.77;1.40;;;;;;;27.47;55.73;100431.91;5065094;28;20190;-75
2023/07/13 11:07:22;;;;;;;2.90;1.20;;;;;;;27.45;54.99;100433.84;5055874;28;20272;-76
2023/07/13 11:09:53;;;;;;;2.23;1.40;;;;;;;27.53;55.79;100428.78;5061556;28;20201;-75
2023/07/13 11:12:25;;;;;;;4.00;1.43;;;;;;;27.51;55.63;100418.28;5064077;28;20194;-74
2023/07/13 11:14:57;;;;;;;1.83;1.33;;;;;;;27.52;55.79;100425.28;5058445;28;20174;-75
2023/07/13 11:17:32;;;;;;;2.53;1.40;;;;;;;27.30;56.01;100417.25;5063312;28;20192;-75
2023/07/13 11:20:12;;;;;;;3.60;1.37;;;;;;;27.41;56.50;100417.25;5056866;28;20201;-73
2023/07/13 11:22:51;;;;;;;2.80;1.47;;;;;;;27.65;56.48;100416.34;5072822;28;20190;-75
2023/07/13 11:25:32;;;;;;;2.17;1.43;;;;;;;27.84;56.06;100421.88;5057062;28;20201;-75
2023/07/13 11:28:12;;;;;;;2.50;1.20;;;;;;;28.08;56.01;100418.22;5067503;28;20181;-75